createdAt,value
2016-10-19T00:00:51.433Z,0
2016-10-19T00:01:51.725Z,0
2016-10-19T00:02:51.378Z,0
2016-10-19T00:03:51.354Z,0
2016-10-19T00:04:51.325Z,0
2016-10-19T00:05:51.296Z,0
2016-10-19T00:06:51.268Z,0
2016-10-19T00:07:51.242Z,0
2016-10-19T00:08:51.210Z,0
2016-10-19T00:09:51.185Z,0
2016-10-19T00:10:51.157Z,0
2016-10-19T00:11:51.159Z,0
2016-10-19T00:12:51.102Z,0
2016-10-19T00:13:51.079Z,0
2016-10-19T00:14:51.050Z,0
2016-10-19T00:15:51.017Z,0
2016-10-19T00:16:50.993Z,0
2016-10-19T00:17:50.962Z,0
2016-10-19T00:18:50.933Z,0
2016-10-19T00:19:50.908Z,0
2016-10-19T00:20:50.880Z,0
2016-10-19T00:21:50.857Z,0
2016-10-19T00:22:50.837Z,0
2016-10-19T00:23:50.799Z,0
2016-10-19T00:24:50.773Z,0
2016-10-19T00:25:50.752Z,0
2016-10-19T00:26:50.720Z,0
2016-10-19T00:27:50.812Z,0
2016-10-19T00:28:50.663Z,0
2016-10-19T00:29:50.636Z,0
2016-10-19T00:30:50.606Z,0
2016-10-19T00:31:50.621Z,0
2016-10-19T00:32:50.550Z,0
2016-10-19T00:33:50.523Z,0
2016-10-19T00:34:50.501Z,0
2016-10-19T00:35:50.472Z,0
2016-10-19T00:36:50.447Z,0
2016-10-19T00:37:50.418Z,0
2016-10-19T00:38:50.391Z,0
2016-10-19T00:39:50.357Z,0
2016-10-19T00:40:50.334Z,0
2016-10-19T00:41:50.309Z,0
2016-10-19T00:42:50.307Z,0
2016-10-19T00:43:50.262Z,0
2016-10-19T00:44:50.224Z,0
2016-10-19T00:45:50.196Z,0
2016-10-19T00:46:50.173Z,0
2016-10-19T00:47:50.147Z,0
2016-10-19T00:48:50.116Z,0
2016-10-19T00:49:50.085Z,0
2016-10-19T00:50:50.059Z,0
2016-10-19T00:51:50.068Z,0
2016-10-19T00:52:50.006Z,0
2016-10-19T00:53:49.977Z,0
2016-10-19T00:54:49.947Z,0
2016-10-19T00:55:49.961Z,0
2016-10-19T00:56:50.205Z,0
2016-10-19T00:57:49.869Z,0
2016-10-19T00:58:49.839Z,0
2016-10-19T00:59:49.813Z,0
2016-10-19T01:00:49.782Z,0
2016-10-19T01:01:49.756Z,0
2016-10-19T01:02:49.770Z,0
2016-10-19T01:03:49.704Z,0
2016-10-19T01:04:49.678Z,0
2016-10-19T01:05:49.645Z,0
2016-10-19T01:06:49.651Z,0
2016-10-19T01:07:49.590Z,0
2016-10-19T01:08:49.568Z,0
2016-10-19T01:09:49.537Z,0
2016-10-19T01:10:49.510Z,0
2016-10-19T01:11:49.485Z,0
2016-10-19T01:12:49.457Z,0
2016-10-19T01:13:49.430Z,0
2016-10-19T01:14:49.437Z,0
2016-10-19T01:15:49.372Z,0
2016-10-19T01:16:49.381Z,0
2016-10-19T01:17:49.354Z,0
2016-10-19T01:18:49.292Z,0
2016-10-19T01:19:49.563Z,0
2016-10-19T01:20:49.238Z,0
2016-10-19T01:21:49.250Z,0
2016-10-19T01:22:49.183Z,0
2016-10-19T01:23:49.149Z,0
2016-10-19T01:24:49.127Z,0
2016-10-19T01:25:49.097Z,0
2016-10-19T01:26:49.070Z,0
2016-10-19T01:27:49.040Z,0
2016-10-19T01:28:49.395Z,0
2016-10-19T01:29:48.983Z,0
2016-10-19T01:30:49.001Z,0
2016-10-19T01:31:48.935Z,0
2016-10-19T01:32:48.937Z,0
2016-10-19T01:33:48.876Z,0
2016-10-19T01:34:48.848Z,0
2016-10-19T01:35:48.828Z,0
2016-10-19T01:36:48.794Z,0
2016-10-19T01:37:48.763Z,0
2016-10-19T01:38:48.741Z,0
2016-10-19T01:39:48.714Z,0
2016-10-19T01:40:48.679Z,0
2016-10-19T01:41:48.659Z,0
2016-10-19T01:42:48.627Z,0
2016-10-19T01:43:48.595Z,0
2016-10-19T01:44:48.570Z,0
2016-10-19T01:45:48.551Z,0
2016-10-19T01:46:48.517Z,0
2016-10-19T01:47:48.489Z,0
2016-10-19T01:48:48.461Z,0
2016-10-19T01:49:48.429Z,0
2016-10-19T01:50:48.403Z,0
2016-10-19T01:51:48.377Z,0
2016-10-19T01:52:48.365Z,0
2016-10-19T01:53:48.319Z,0
2016-10-19T01:54:48.331Z,0
2016-10-19T01:55:48.265Z,0
2016-10-19T01:56:48.237Z,0
2016-10-19T01:57:48.204Z,0
2016-10-19T01:58:48.185Z,0
2016-10-19T01:59:48.149Z,0
2016-10-19T02:00:48.116Z,0
2016-10-19T02:01:48.093Z,0
2016-10-19T02:02:48.071Z,0
2016-10-19T02:03:48.032Z,0
2016-10-19T02:04:48.008Z,0
2016-10-19T02:05:47.981Z,0
2016-10-19T02:06:47.960Z,0
2016-10-19T02:07:47.926Z,0
2016-10-19T02:08:47.929Z,0
2016-10-19T02:09:47.863Z,0
2016-10-19T02:10:47.838Z,0
2016-10-19T02:11:47.809Z,0
2016-10-19T02:12:47.779Z,0
2016-10-19T02:13:47.749Z,0
2016-10-19T02:14:47.723Z,0
2016-10-19T02:15:47.691Z,0
2016-10-19T02:16:47.673Z,0
2016-10-19T02:17:47.639Z,0
2016-10-19T02:18:47.601Z,0
2016-10-19T02:19:47.574Z,0
2016-10-19T02:20:47.547Z,0
2016-10-19T02:21:47.561Z,0
2016-10-19T02:22:47.794Z,0
2016-10-19T02:23:47.465Z,0
2016-10-19T02:24:47.439Z,0
2016-10-19T02:25:47.401Z,0
2016-10-19T02:26:47.376Z,0
2016-10-19T02:27:47.390Z,0
2016-10-19T02:28:47.317Z,0
2016-10-19T02:29:47.294Z,0
2016-10-19T02:30:47.263Z,0
2016-10-19T02:31:47.232Z,0
2016-10-19T02:32:47.203Z,0
2016-10-19T02:33:47.173Z,0
2016-10-19T02:34:47.144Z,0
2016-10-19T02:35:47.116Z,0
2016-10-19T02:36:47.093Z,0
2016-10-19T02:37:47.058Z,0
2016-10-19T02:38:47.337Z,0
2016-10-19T02:39:46.998Z,0
2016-10-19T02:40:46.980Z,0
2016-10-19T02:41:46.950Z,0
2016-10-19T02:42:46.949Z,0
2016-10-19T02:43:46.926Z,0
2016-10-19T02:44:46.861Z,0
2016-10-19T02:45:46.828Z,0
2016-10-19T02:46:46.798Z,0
2016-10-19T02:47:46.772Z,0
2016-10-19T02:48:46.743Z,0
2016-10-19T02:49:46.715Z,0
2016-10-19T02:50:46.685Z,0
2016-10-19T02:51:46.660Z,0
2016-10-19T02:52:46.655Z,0
2016-10-19T02:53:46.594Z,0
2016-10-19T02:54:46.865Z,0
2016-10-19T02:55:46.540Z,0
2016-10-19T02:56:46.515Z,0
2016-10-19T02:57:46.478Z,0
2016-10-19T02:58:46.452Z,0
2016-10-19T02:59:46.431Z,0
2016-10-19T03:00:46.397Z,0
2016-10-19T03:01:46.368Z,0
2016-10-19T03:02:46.345Z,0
2016-10-19T03:03:46.314Z,0
2016-10-19T03:04:46.276Z,0
2016-10-19T03:05:46.250Z,0
2016-10-19T03:06:46.231Z,0
2016-10-19T03:07:46.197Z,0
2016-10-19T03:08:46.165Z,0
2016-10-19T03:09:46.135Z,0
2016-10-19T03:10:46.108Z,0
2016-10-19T03:11:46.111Z,0
2016-10-19T03:12:46.052Z,0
2016-10-19T03:13:46.019Z,0
2016-10-19T03:14:45.988Z,0
2016-10-19T03:15:45.963Z,0
2016-10-19T03:16:45.933Z,0
2016-10-19T03:17:45.906Z,0
2016-10-19T03:18:45.873Z,0
2016-10-19T03:19:45.842Z,0
2016-10-19T03:20:45.817Z,0
2016-10-19T03:21:45.824Z,0
2016-10-19T03:22:45.764Z,0
2016-10-19T03:23:45.773Z,0
2016-10-19T03:24:45.701Z,0
2016-10-19T03:25:45.674Z,0
2016-10-19T03:26:45.647Z,0
2016-10-19T03:27:45.616Z,0
2016-10-19T03:28:45.587Z,0
2016-10-19T03:29:45.561Z,0
2016-10-19T03:30:45.529Z,0
2016-10-19T03:31:45.501Z,0
2016-10-19T03:32:45.476Z,0
2016-10-19T03:33:45.736Z,0
2016-10-19T03:34:45.456Z,0
2016-10-19T03:35:45.422Z,0
2016-10-19T03:36:45.360Z,0
2016-10-19T03:37:45.329Z,0
2016-10-19T03:38:45.302Z,0
2016-10-19T03:39:45.272Z,0
2016-10-19T03:40:45.241Z,0
2016-10-19T03:41:45.214Z,0
2016-10-19T03:42:45.188Z,0
2016-10-19T03:43:45.152Z,0
2016-10-19T03:44:45.130Z,0
2016-10-19T03:45:45.096Z,0
2016-10-19T03:46:45.371Z,0
2016-10-19T03:47:45.042Z,0
2016-10-19T03:48:45.016Z,0
2016-10-19T03:49:45.279Z,0
2016-10-19T03:50:44.958Z,0
2016-10-19T03:51:44.932Z,0
2016-10-19T03:52:44.896Z,0
2016-10-19T03:53:44.864Z,0
2016-10-19T03:54:44.841Z,0
2016-10-19T03:55:44.808Z,0
2016-10-19T03:56:44.780Z,0
2016-10-19T03:57:44.762Z,0
2016-10-19T03:58:44.722Z,0
2016-10-19T03:59:44.698Z,0
2016-10-19T04:00:44.667Z,0
2016-10-19T04:01:44.678Z,0
2016-10-19T04:02:44.615Z,0
2016-10-19T04:03:44.582Z,0
2016-10-19T04:04:44.566Z,0
2016-10-19T04:05:44.526Z,0
2016-10-19T04:06:44.504Z,0
2016-10-19T04:07:44.476Z,0
2016-10-19T04:08:44.437Z,0
2016-10-19T04:09:44.414Z,0
2016-10-19T04:10:44.376Z,0
2016-10-19T04:11:44.353Z,0
2016-10-19T04:12:44.365Z,0
2016-10-19T04:13:44.325Z,0
2016-10-19T04:14:44.262Z,0
2016-10-19T04:15:44.238Z,0
2016-10-19T04:16:44.216Z,0
2016-10-19T04:17:44.175Z,0
2016-10-19T04:18:44.153Z,0
2016-10-19T04:19:44.120Z,0
2016-10-19T04:20:44.134Z,0
2016-10-19T04:21:44.067Z,0
2016-10-19T04:22:44.033Z,0
2016-10-19T04:23:44.008Z,0
2016-10-19T04:24:43.978Z,0
2016-10-19T04:25:43.989Z,0
2016-10-19T04:26:43.968Z,0
2016-10-19T04:27:43.891Z,0
2016-10-19T04:28:43.857Z,0
2016-10-19T04:29:43.833Z,0
2016-10-19T04:30:43.801Z,0
2016-10-19T04:31:43.773Z,0
2016-10-19T04:32:43.751Z,0
2016-10-19T04:33:43.717Z,0
2016-10-19T04:34:43.690Z,0
2016-10-19T04:35:43.659Z,0
2016-10-19T04:36:43.669Z,0
2016-10-19T04:37:43.603Z,0
2016-10-19T04:38:43.616Z,0
2016-10-19T04:39:43.544Z,0
2016-10-19T04:40:43.516Z,0
2016-10-19T04:41:43.490Z,0
2016-10-19T04:42:43.457Z,0
2016-10-19T04:43:43.431Z,0
2016-10-19T04:44:43.407Z,0
2016-10-19T04:45:43.411Z,0
2016-10-19T04:46:43.346Z,0
2016-10-19T04:47:43.309Z,0
2016-10-19T04:48:43.283Z,0
2016-10-19T04:49:43.264Z,0
2016-10-19T04:50:43.228Z,0
2016-10-19T04:51:43.196Z,0
2016-10-19T04:52:43.175Z,0
2016-10-19T04:53:43.142Z,0
2016-10-19T04:54:43.120Z,0
2016-10-19T04:55:43.087Z,0
2016-10-19T04:56:43.059Z,0
2016-10-19T04:57:43.051Z,0
2016-10-19T04:58:42.996Z,0
2016-10-19T04:59:42.968Z,0
2016-10-19T05:00:42.939Z,0
2016-10-19T05:01:42.910Z,0
2016-10-19T05:02:42.889Z,0
2016-10-19T05:03:42.854Z,0
2016-10-19T05:04:42.823Z,0
2016-10-19T05:05:42.792Z,0
2016-10-19T05:06:42.766Z,0
2016-10-19T05:07:42.804Z,0
2016-10-19T05:08:42.709Z,0
2016-10-19T05:09:42.677Z,0
2016-10-19T05:10:42.656Z,0
2016-10-19T05:11:42.624Z,0
2016-10-19T05:12:42.591Z,0
2016-10-19T05:13:42.565Z,0
2016-10-19T05:14:42.532Z,0
2016-10-19T05:15:42.505Z,0
2016-10-19T05:16:42.482Z,0
2016-10-19T05:17:42.448Z,0
2016-10-19T05:18:42.420Z,0
2016-10-19T05:19:42.395Z,0
2016-10-19T05:20:42.370Z,0
2016-10-19T05:21:42.336Z,0
2016-10-19T05:22:42.348Z,0
2016-10-19T05:23:42.274Z,0
2016-10-19T05:24:42.250Z,0
2016-10-19T05:25:42.216Z,0
2016-10-19T05:26:42.187Z,0
2016-10-19T05:27:42.159Z,0
2016-10-19T05:28:42.129Z,0
2016-10-19T05:29:42.101Z,4
2016-10-19T05:30:42.087Z,4
2016-10-19T05:31:42.048Z,4
2016-10-19T05:32:42.020Z,4
2016-10-19T05:33:41.989Z,4
2016-10-19T05:34:41.960Z,4
2016-10-19T05:35:41.934Z,8
2016-10-19T05:36:41.905Z,4
2016-10-19T05:37:41.872Z,8
2016-10-19T05:38:41.848Z,8
2016-10-19T05:39:41.827Z,12
2016-10-19T05:40:41.786Z,16
2016-10-19T05:41:42.063Z,16
2016-10-19T05:42:41.739Z,20
2016-10-19T05:43:41.705Z,24
2016-10-19T05:44:41.678Z,28
2016-10-19T05:45:41.651Z,32
2016-10-19T05:46:41.624Z,32
2016-10-19T05:47:41.589Z,40
2016-10-19T05:48:41.860Z,44
2016-10-19T05:49:41.536Z,52
2016-10-19T05:50:41.508Z,52
2016-10-19T05:51:41.480Z,64
2016-10-19T05:52:41.481Z,72
2016-10-19T05:53:41.423Z,76
2016-10-19T05:54:41.396Z,84
2016-10-19T05:55:41.369Z,88
2016-10-19T05:56:41.338Z,92
2016-10-19T05:57:41.305Z,96
2016-10-19T05:58:41.276Z,104
2016-10-19T05:59:41.250Z,108
2016-10-19T06:00:41.230Z,112
2016-10-19T06:01:41.193Z,120
2016-10-19T06:02:41.168Z,136
2016-10-19T06:03:41.135Z,148
2016-10-19T06:04:41.101Z,156
2016-10-19T06:05:41.076Z,172
2016-10-19T06:06:41.049Z,176
2016-10-19T06:07:41.315Z,188
2016-10-19T06:08:40.994Z,192
2016-10-19T06:09:40.965Z,204
2016-10-19T06:10:40.936Z,228
2016-10-19T06:11:40.909Z,252
2016-10-19T06:12:40.877Z,284
2016-10-19T06:13:40.853Z,276
2016-10-19T06:14:40.818Z,284
2016-10-19T06:15:40.791Z,336
2016-10-19T06:16:40.770Z,344
2016-10-19T06:17:40.737Z,336
2016-10-19T06:18:40.705Z,336
2016-10-19T06:19:40.682Z,368
2016-10-19T06:20:40.687Z,432
2016-10-19T06:21:40.664Z,440
2016-10-19T06:22:40.593Z,428
2016-10-19T06:23:40.566Z,452
2016-10-19T06:24:40.539Z,472
2016-10-19T06:25:40.515Z,480
2016-10-19T06:26:40.786Z,516
2016-10-19T06:27:40.453Z,520
2016-10-19T06:28:40.451Z,604
2016-10-19T06:29:40.396Z,644
2016-10-19T06:30:40.369Z,680
2016-10-19T06:31:40.336Z,648
2016-10-19T06:32:40.312Z,612
2016-10-19T06:33:40.283Z,548
2016-10-19T06:34:40.254Z,516
2016-10-19T06:35:40.222Z,480
2016-10-19T06:36:40.199Z,520
2016-10-19T06:37:40.173Z,532
2016-10-19T06:38:40.142Z,536
2016-10-19T06:39:40.112Z,544
2016-10-19T06:40:40.084Z,552
2016-10-19T06:41:40.062Z,600
2016-10-19T06:42:40.030Z,656
2016-10-19T06:43:39.997Z,704
2016-10-19T06:44:40.275Z,756
2016-10-19T06:45:39.944Z,768
2016-10-19T06:46:39.914Z,788
2016-10-19T06:47:39.886Z,772
2016-10-19T06:48:39.862Z,716
2016-10-19T06:49:40.127Z,708
2016-10-19T06:50:39.803Z,708
2016-10-19T06:51:40.156Z,792
2016-10-19T06:52:39.751Z,796
2016-10-19T06:53:40.620Z,792
2016-10-19T06:54:39.696Z,768
2016-10-19T06:55:39.658Z,752
2016-10-19T06:56:39.629Z,780
2016-10-19T06:57:39.603Z,956
2016-10-19T06:58:39.576Z,1092
2016-10-19T06:59:39.550Z,1012
2016-10-19T07:00:39.520Z,976
2016-10-19T07:01:39.500Z,940
2016-10-19T07:02:39.464Z,920
2016-10-19T07:03:39.434Z,952
2016-10-19T07:04:40.138Z,996
2016-10-19T07:05:39.377Z,1120
2016-10-19T07:06:39.386Z,1240
2016-10-19T07:07:39.381Z,1468
2016-10-19T07:08:39.294Z,1620
2016-10-19T07:09:39.266Z,1712
2016-10-19T07:10:39.240Z,1856
2016-10-19T07:11:39.209Z,1788
2016-10-19T07:12:39.184Z,1652
2016-10-19T07:13:39.154Z,1644
2016-10-19T07:14:39.125Z,1636
2016-10-19T07:15:39.104Z,1744
2016-10-19T07:16:39.073Z,1704
2016-10-19T07:17:39.049Z,1688
2016-10-19T07:18:39.020Z,1636
2016-10-19T07:19:38.984Z,1508
2016-10-19T07:20:38.957Z,1392
2016-10-19T07:21:38.930Z,1156
2016-10-19T07:22:39.172Z,920
2016-10-19T07:23:38.877Z,924
2016-10-19T07:24:38.849Z,988
2016-10-19T07:25:39.114Z,1124
2016-10-19T07:26:38.789Z,1168
2016-10-19T07:27:38.757Z,1292
2016-10-19T07:28:38.731Z,1324
2016-10-19T07:29:38.719Z,1456
2016-10-19T07:30:38.676Z,1640
2016-10-19T07:31:38.647Z,1848
2016-10-19T07:32:38.619Z,1968
2016-10-19T07:33:38.595Z,1920
2016-10-19T07:34:38.566Z,1732
2016-10-19T07:35:38.538Z,1800
2016-10-19T07:36:38.547Z,1796
2016-10-19T07:37:38.510Z,1776
2016-10-19T07:38:38.455Z,1612
2016-10-19T07:39:38.420Z,1424
2016-10-19T07:40:38.397Z,1308
2016-10-19T07:41:38.372Z,1176
2016-10-19T07:42:38.339Z,1032
2016-10-19T07:43:38.313Z,1024
2016-10-19T07:44:38.284Z,964
2016-10-19T07:45:38.296Z,932
2016-10-19T07:46:38.224Z,916
2016-10-19T07:47:38.198Z,912
2016-10-19T07:48:38.175Z,840
2016-10-19T07:49:38.144Z,888
2016-10-19T07:50:38.121Z,968
2016-10-19T07:51:38.086Z,868
2016-10-19T07:52:38.060Z,940
2016-10-19T07:53:38.422Z,980
2016-10-19T07:54:37.999Z,948
2016-10-19T07:55:37.974Z,1068
2016-10-19T07:56:37.948Z,1248
2016-10-19T07:57:38.026Z,1196
2016-10-19T07:58:37.886Z,1216
2016-10-19T07:59:37.861Z,1208
2016-10-19T08:00:37.831Z,1500
2016-10-19T08:01:37.819Z,1664
2016-10-19T08:02:37.780Z,1780
2016-10-19T08:03:37.759Z,1940
2016-10-19T08:04:37.719Z,2108
2016-10-19T08:05:37.692Z,2264
2016-10-19T08:06:37.664Z,2456
2016-10-19T08:07:37.636Z,2512
2016-10-19T08:08:37.607Z,2396
2016-10-19T08:09:37.581Z,2260
2016-10-19T08:10:37.551Z,2136
2016-10-19T08:11:37.832Z,1932
2016-10-19T08:12:37.541Z,1712
2016-10-19T08:13:37.462Z,1600
2016-10-19T08:14:37.439Z,1496
2016-10-19T08:15:37.413Z,1404
2016-10-19T08:16:37.380Z,1388
2016-10-19T08:17:37.650Z,1404
2016-10-19T08:18:37.328Z,1400
2016-10-19T08:19:37.297Z,1424
2016-10-19T08:20:37.277Z,1676
2016-10-19T08:21:37.249Z,1928
2016-10-19T08:22:37.220Z,1712
2016-10-19T08:23:37.481Z,1652
2016-10-19T08:24:37.155Z,1328
2016-10-19T08:25:37.170Z,1228
2016-10-19T08:26:37.098Z,1240
2016-10-19T08:27:37.072Z,1072
2016-10-19T08:28:37.061Z,1040
2016-10-19T08:29:37.347Z,1068
2016-10-19T08:30:36.996Z,948
2016-10-19T08:31:36.959Z,1088
2016-10-19T08:32:36.935Z,972
2016-10-19T08:33:36.902Z,1092
2016-10-19T08:34:37.622Z,1192
2016-10-19T08:35:36.842Z,1028
2016-10-19T08:36:36.837Z,1064
2016-10-19T08:37:37.193Z,1152
2016-10-19T08:38:37.159Z,1272
2016-10-19T08:39:36.735Z,1316
2016-10-19T08:40:36.703Z,1436
2016-10-19T08:41:36.969Z,1520
2016-10-19T08:42:36.643Z,1608
2016-10-19T08:43:36.622Z,2096
2016-10-19T08:44:36.588Z,2240
2016-10-19T08:45:36.561Z,2456
2016-10-19T08:46:36.539Z,2924
2016-10-19T08:47:36.811Z,2932
2016-10-19T08:48:36.493Z,2928
2016-10-19T08:49:36.445Z,3164
2016-10-19T08:50:36.448Z,3788
2016-10-19T08:51:36.395Z,3592
2016-10-19T08:52:36.364Z,3476
2016-10-19T08:53:36.344Z,3676
2016-10-19T08:54:36.345Z,3992
2016-10-19T08:55:36.571Z,5280
2016-10-19T08:56:36.250Z,6044
2016-10-19T08:57:36.223Z,4564
2016-10-19T08:58:36.492Z,4320
2016-10-19T08:59:36.175Z,4288
2016-10-19T09:00:36.142Z,4068
2016-10-19T09:01:36.462Z,4312
2016-10-19T09:02:36.169Z,3560
2016-10-19T09:03:36.068Z,4096
2016-10-19T09:04:36.033Z,4432
2016-10-19T09:05:36.001Z,4552
2016-10-19T09:06:35.978Z,4560
2016-10-19T09:07:35.951Z,4636
2016-10-19T09:08:35.966Z,5336
2016-10-19T09:09:37.100Z,4908
2016-10-19T09:10:35.867Z,4168
2016-10-19T09:11:35.832Z,4056
2016-10-19T09:12:35.818Z,5020
2016-10-19T09:13:35.778Z,5820
2016-10-19T09:14:35.782Z,6540
2016-10-19T09:15:35.757Z,5724
2016-10-19T09:16:35.990Z,5744
2016-10-19T09:17:35.668Z,5396
2016-10-19T09:18:35.943Z,4920
2016-10-19T09:19:35.607Z,3732
2016-10-19T09:20:35.583Z,3272
2016-10-19T09:21:35.556Z,2816
2016-10-19T09:22:35.696Z,2872
2016-10-19T09:23:35.498Z,2900
2016-10-19T09:24:35.504Z,2564
2016-10-19T09:25:35.872Z,3028
2016-10-19T09:26:35.421Z,3500
2016-10-19T09:27:35.388Z,4100
2016-10-19T09:28:35.659Z,4504
2016-10-19T09:29:35.331Z,4936
2016-10-19T09:30:35.311Z,5444
2016-10-19T09:31:35.309Z,4912
2016-10-19T09:32:35.254Z,5732
2016-10-19T09:33:35.227Z,5924
2016-10-19T09:34:35.192Z,7620
2016-10-19T09:35:35.208Z,6916
2016-10-19T09:36:35.152Z,5108
2016-10-19T09:37:35.120Z,4968
2016-10-19T09:38:35.089Z,5132
2016-10-19T09:39:35.066Z,4052
2016-10-19T09:40:35.039Z,3500
2016-10-19T09:41:35.005Z,3380
2016-10-19T09:42:35.016Z,3200
2016-10-19T09:43:34.952Z,3264
2016-10-19T09:44:34.921Z,3184
2016-10-19T09:45:34.902Z,3780
2016-10-19T09:46:34.869Z,3252
2016-10-19T09:47:34.841Z,3396
2016-10-19T09:48:34.812Z,3336
2016-10-19T09:49:34.791Z,3436
2016-10-19T09:50:34.759Z,3276
2016-10-19T09:51:34.783Z,4124
2016-10-19T09:52:35.011Z,4768
2016-10-19T09:53:34.674Z,3896
2016-10-19T09:54:34.644Z,4904
2016-10-19T09:55:34.963Z,5968
2016-10-19T09:56:34.594Z,7120
2016-10-19T09:57:34.571Z,8184
2016-10-19T09:58:34.841Z,5348
2016-10-19T09:59:34.514Z,6084
2016-10-19T10:00:34.511Z,5424
2016-10-19T10:01:34.460Z,5872
2016-10-19T10:02:34.428Z,7532
2016-10-19T10:03:34.403Z,9100
2016-10-19T10:04:34.389Z,8908
2016-10-19T10:05:34.646Z,6996
2016-10-19T10:06:34.320Z,7784
2016-10-19T10:07:34.295Z,5948
2016-10-19T10:08:34.269Z,5316
2016-10-19T10:09:34.248Z,5192
2016-10-19T10:10:34.220Z,5264
2016-10-19T10:11:34.187Z,4612
2016-10-19T10:12:34.154Z,3980
2016-10-19T10:13:34.132Z,3936
2016-10-19T10:14:34.103Z,5248
2016-10-19T10:15:34.078Z,6536
2016-10-19T10:16:34.084Z,6668
2016-10-19T10:17:34.022Z,4824
2016-10-19T10:18:33.997Z,5108
2016-10-19T10:19:33.974Z,5184
2016-10-19T10:20:33.945Z,6476
2016-10-19T10:21:33.917Z,6288
2016-10-19T10:22:33.888Z,6488
2016-10-19T10:23:33.861Z,5224
2016-10-19T10:24:33.832Z,5824
2016-10-19T10:25:33.856Z,6700
2016-10-19T10:26:33.781Z,6116
2016-10-19T10:27:33.758Z,6256
2016-10-19T10:28:33.730Z,6592
2016-10-19T10:29:33.711Z,6332
2016-10-19T10:30:33.681Z,5536
2016-10-19T10:31:33.668Z,5288
2016-10-19T10:32:33.623Z,5040
2016-10-19T10:33:34.056Z,4296
2016-10-19T10:34:33.601Z,3900
2016-10-19T10:35:33.542Z,4948
2016-10-19T10:36:33.512Z,5884
2016-10-19T10:37:33.485Z,5136
2016-10-19T10:38:33.465Z,6128
2016-10-19T10:39:33.813Z,5620
2016-10-19T10:40:33.412Z,5524
2016-10-19T10:41:33.379Z,5648
2016-10-19T10:42:33.356Z,5352
2016-10-19T10:43:33.329Z,4612
2016-10-19T10:44:33.297Z,6724
2016-10-19T10:45:33.271Z,5632
2016-10-19T10:46:33.246Z,5304
2016-10-19T10:47:33.220Z,6148
2016-10-19T10:48:33.191Z,5544
2016-10-19T10:49:33.162Z,3444
2016-10-19T10:50:33.143Z,2428
2016-10-19T10:51:33.111Z,2120
2016-10-19T10:52:33.086Z,2020
2016-10-19T10:53:33.060Z,1836
2016-10-19T10:54:33.028Z,2940
2016-10-19T10:55:33.002Z,2764
2016-10-19T10:56:33.506Z,3104
2016-10-19T10:57:33.041Z,5808
2016-10-19T10:58:32.925Z,12124
2016-10-19T10:59:32.895Z,8060
2016-10-19T11:00:32.883Z,5532
2016-10-19T11:01:32.841Z,5096
2016-10-19T11:02:32.823Z,5056
2016-10-19T11:03:32.821Z,3372
2016-10-19T11:04:32.762Z,3192
2016-10-19T11:05:32.823Z,3716
2016-10-19T11:06:32.965Z,3272
2016-10-19T11:07:32.722Z,5020
2016-10-19T11:08:32.690Z,6564
2016-10-19T11:09:32.632Z,9144
2016-10-19T11:10:32.604Z,10504
2016-10-19T11:11:32.619Z,9468
2016-10-19T11:12:33.140Z,8688
2016-10-19T11:13:32.526Z,5304
2016-10-19T11:14:32.499Z,4996
2016-10-19T11:15:32.469Z,2528
2016-10-19T11:16:32.443Z,3152
2016-10-19T11:17:32.512Z,4024
2016-10-19T11:18:32.387Z,5228
2016-10-19T11:19:32.396Z,5408
2016-10-19T11:20:32.338Z,6212
2016-10-19T11:21:32.317Z,10740
2016-10-19T11:22:32.286Z,10460
2016-10-19T11:23:32.294Z,12256
2016-10-19T11:24:32.232Z,12292
2016-10-19T11:25:32.207Z,9172
2016-10-19T11:26:32.175Z,13792
2016-10-19T11:27:32.157Z,17576
2016-10-19T11:28:32.128Z,18080
2016-10-19T11:29:32.100Z,16112
2016-10-19T11:30:33.352Z,18144
2016-10-19T11:31:32.052Z,14688
2016-10-19T11:32:32.023Z,14752
2016-10-19T11:33:32.863Z,15656
2016-10-19T11:34:32.004Z,14248
2016-10-19T11:35:32.162Z,12816
2016-10-19T11:36:31.918Z,9000
2016-10-19T11:37:31.899Z,11148
2016-10-19T11:38:31.876Z,10236
2016-10-19T11:39:31.846Z,8840
2016-10-19T11:40:31.818Z,8204
2016-10-19T11:41:31.794Z,7732
2016-10-19T11:42:31.771Z,6820
2016-10-19T11:43:31.744Z,8696
2016-10-19T11:44:31.716Z,10124
2016-10-19T11:45:31.743Z,10896
2016-10-19T11:46:31.698Z,10376
2016-10-19T11:47:31.952Z,11444
2016-10-19T11:48:31.618Z,17952
2016-10-19T11:49:31.588Z,23232
2016-10-19T11:50:31.559Z,23584
2016-10-19T11:51:31.541Z,19296
2016-10-19T11:52:31.507Z,11736
2016-10-19T11:53:31.482Z,12100
2016-10-19T11:54:31.458Z,11332
2016-10-19T11:55:31.467Z,8268
2016-10-19T11:56:31.411Z,9420
2016-10-19T11:57:31.383Z,10520
2016-10-19T11:58:31.356Z,24544
2016-10-19T11:59:31.346Z,24512
2016-10-19T12:00:31.309Z,25984
2016-10-19T12:01:31.287Z,26304
2016-10-19T12:02:31.256Z,22816
2016-10-19T12:03:31.234Z,19680
2016-10-19T12:04:31.209Z,27232
2016-10-19T12:05:31.182Z,26240
2016-10-19T12:06:31.161Z,25376
2016-10-19T12:07:31.138Z,21312
2016-10-19T12:08:31.118Z,16420
2016-10-19T12:09:31.132Z,17600
2016-10-19T12:10:31.065Z,11608
2016-10-19T12:11:31.080Z,13896
2016-10-19T12:12:31.016Z,11764
2016-10-19T12:13:30.988Z,8552
2016-10-19T12:14:30.968Z,9232
2016-10-19T12:15:30.935Z,11256
2016-10-19T12:16:30.912Z,12832
2016-10-19T12:17:30.898Z,13052
2016-10-19T12:18:30.865Z,12124
2016-10-19T12:19:30.973Z,10000
2016-10-19T12:20:30.821Z,9192
2016-10-19T12:21:30.789Z,7480
2016-10-19T12:22:30.784Z,6848
2016-10-19T12:23:30.741Z,7416
2016-10-19T12:24:30.713Z,6416
2016-10-19T12:25:31.118Z,5380
2016-10-19T12:26:30.672Z,3676
2016-10-19T12:27:30.641Z,3404
2016-10-19T12:28:30.619Z,2636
2016-10-19T12:29:30.734Z,1980
2016-10-19T12:30:31.336Z,1804
2016-10-19T12:31:30.994Z,2096
2016-10-19T12:32:30.516Z,1808
2016-10-19T12:33:30.490Z,1692
2016-10-19T12:34:30.461Z,2880
2016-10-19T12:35:30.436Z,3540
2016-10-19T12:36:31.169Z,5424
2016-10-19T12:37:30.418Z,6876
2016-10-19T12:38:30.356Z,8920
2016-10-19T12:39:30.337Z,9988
2016-10-19T12:40:30.312Z,10020
2016-10-19T12:41:30.282Z,11400
2016-10-19T12:42:30.258Z,13324
2016-10-19T12:43:30.531Z,12520
2016-10-19T12:44:30.205Z,9524
2016-10-19T12:45:30.205Z,9848
2016-10-19T12:46:30.389Z,12792
2016-10-19T12:47:30.126Z,12948
2016-10-19T12:48:30.433Z,11764
2016-10-19T12:49:30.081Z,9616
2016-10-19T12:50:30.045Z,9480
2016-10-19T12:51:30.396Z,9152
2016-10-19T12:52:29.998Z,10420
2016-10-19T12:53:29.969Z,11840
2016-10-19T12:54:29.952Z,13968
2016-10-19T12:55:29.929Z,15224
2016-10-19T12:56:29.898Z,14664
2016-10-19T12:57:29.878Z,13264
2016-10-19T12:58:29.932Z,8512
2016-10-19T12:59:29.828Z,9136
2016-10-19T13:00:29.793Z,9656
2016-10-19T13:01:29.765Z,5796
2016-10-19T13:02:29.757Z,4364
2016-10-19T13:03:29.717Z,2860
2016-10-19T13:04:29.819Z,2892
2016-10-19T13:05:29.670Z,3796
2016-10-19T13:06:29.639Z,4268
2016-10-19T13:07:29.612Z,7680
2016-10-19T13:08:29.599Z,5404
2016-10-19T13:09:29.559Z,3144
2016-10-19T13:10:29.537Z,3176
2016-10-19T13:11:29.512Z,3092
2016-10-19T13:12:29.529Z,2864
2016-10-19T13:13:29.452Z,2640
2016-10-19T13:14:29.755Z,2960
2016-10-19T13:15:29.403Z,2804
2016-10-19T13:16:29.378Z,2620
2016-10-19T13:17:29.607Z,2856
2016-10-19T13:18:29.323Z,2696
2016-10-19T13:19:29.295Z,2456
2016-10-19T13:20:29.268Z,2184
2016-10-19T13:21:29.245Z,2144
2016-10-19T13:22:29.212Z,2432
2016-10-19T13:23:29.187Z,2368
2016-10-19T13:24:29.201Z,2528
2016-10-19T13:25:29.143Z,2988
2016-10-19T13:26:29.113Z,3196
2016-10-19T13:27:29.081Z,3080
2016-10-19T13:28:29.052Z,3016
2016-10-19T13:29:29.037Z,2896
2016-10-19T13:30:29.040Z,2776
2016-10-19T13:31:28.977Z,2704
2016-10-19T13:32:29.246Z,2620
2016-10-19T13:33:28.912Z,2496
2016-10-19T13:34:28.895Z,2000
2016-10-19T13:35:28.864Z,1968
2016-10-19T13:36:28.833Z,2396
2016-10-19T13:37:28.808Z,2568
2016-10-19T13:38:28.785Z,3224
2016-10-19T13:39:28.751Z,3224
2016-10-19T13:40:28.728Z,2928
2016-10-19T13:41:28.705Z,4236
2016-10-19T13:42:28.983Z,4424
2016-10-19T13:43:28.651Z,3880
2016-10-19T13:44:28.615Z,4028
2016-10-19T13:45:28.590Z,3652
2016-10-19T13:46:28.559Z,3448
2016-10-19T13:47:28.561Z,4168
2016-10-19T13:48:28.503Z,4000
2016-10-19T13:49:28.521Z,5048
2016-10-19T13:50:28.479Z,4216
2016-10-19T13:51:28.417Z,4140
2016-10-19T13:52:28.389Z,3516
2016-10-19T13:53:28.363Z,4172
2016-10-19T13:54:28.337Z,3452